This is the latest recevied weather packets stored in our database for station/object OZ1IEP-5. If no packets are shown the sender has not sent any weather packets the latest 10 day(s).
| Time | Temp. | Humidity | Pressure | Rain* | Wind** | Luminosity | Snow |
|---|---|---|---|---|---|---|---|
| 1778014808 | 7.22° C | 75% | 1009.9 hPa | 0 mm | - | 0 W/m² | - |
| 1778014206 | 7.22° C | 74% | 1010 hPa | 0 mm | - | 0 W/m² | - |
| 1778013606 | 7.22° C | 73% | 1009.9 hPa | 0 mm | - | 0 W/m² | - |
| 1778013009 | 7.22° C | 72% | 1009.9 hPa | 0 mm | - | 0 W/m² | - |
| 1778012406 | 7.22° C | 72% | 1009.9 hPa | 0 mm | - | 0 W/m² | - |
| 1778011806 | 7.22° C | 70% | 1009.9 hPa | 0 mm | - | 0 W/m² | - |
| 1778011208 | 7.22° C | 69% | 1009.8 hPa | 0 mm | - | 0 W/m² | - |
| 1778010606 | 7.22° C | 67% | 1009.9 hPa | 0 mm | - | 0 W/m² | - |
| 1778010005 | 7.22° C | 64% | 1009.9 hPa | 0 mm | - | 0 W/m² | - |
| 1778009408 | 7.78° C | 62% | 1009.9 hPa | 0 mm | - | 0 W/m² | - |
| 1778008806 | 7.78° C | 59% | 1009.9 hPa | 0 mm | - | 0 W/m² | - |
| 1778008206 | 8.33° C | 57% | 1009.9 hPa | 0 mm | - | 0 W/m² | - |
| 1778007620 | 8.89° C | 57% | 1009.8 hPa | 0 mm | - | 0 W/m² | - |
| 1778007006 | 8.89° C | 55% | 1009.8 hPa | 0 mm | - | 5 W/m² | - |
| 1778006406 | 9.44° C | 56% | 1009.8 hPa | 0 mm | - | 11 W/m² | - |
| 1778005809 | 9.44° C | 55% | 1009.8 hPa | 0 mm | - | 14 W/m² | - |
| 1778005206 | 9.44° C | 54% | 1009.8 hPa | 0 mm | - | 19 W/m² | - |
| 1778004606 | 10° C | 52% | 1009.7 hPa | 0 mm | - | 28 W/m² | - |
| 1778004009 | 10.56° C | 50% | 1009.6 hPa | 0 mm | - | 39 W/m² | - |
| 1778003406 | 10.56° C | 54% | 1009.7 hPa | 0 mm | - | 93 W/m² | - |
| 1778002806 | 10.56° C | 57% | 1009.7 hPa | 0 mm | - | 135 W/m² | - |
| 1778002209 | 10.56° C | 55% | 1009.7 hPa | 0 mm | - | 40 W/m² | - |
| 1778001606 | 11.11° C | 59% | 1009.7 hPa | 0 mm | - | 86 W/m² | - |
| 1778001006 | 11.11° C | 57% | 1009.8 hPa | 0 mm | - | 44 W/m² | - |
| 1778000408 | 11.11° C | 56% | 1009.7 hPa | 0 mm | - | 60 W/m² | - |
* Rain latest hour (hover to see other rain measurements)
** Current wind speed in m/s (hover to see current wind gust speed)